KEOK/EOK METAR and TAF weather

Enter ICAO airport designator
Station Type Date Time Source
KEOK METAR 2020/04/06 11:55 UTC NOAA

KEOK 061155Z AUTO 13004KT 10SM FEW022 BKN034 OVC060 08/06 A3005 RMK AO2


Station Type Date Time Source
KEOK Decoded METAR 2020/04/06 11:55 UTC NOAA

Keokuk Municipal, IA, United States (KEOK) 40-28N 091-26W
Apr 06, 2020 - 07:55 AM EDT / 2020.04.06 1155 UTC
Wind: from the SE (130 degrees) at 5 MPH (4 KT):0
Visibility: 10 mile(s):0
Sky conditions: overcast
Temperature: 46 F (8 C)
Dew Point: 42 F (6 C)
Relative Humidity: 87%
Pressure (altimeter): 30.05 in. Hg (1017 hPa)
ob: KEOK 061155Z AUTO 13004KT 10SM FEW022 BKN034 OVC060 08/06 A3005 RMK AO2
cycle: 12

Station Type Date Time Source
KEOK TAF UTC NOAA

Error!

Example: see airport list